sensor_id;sensor_type;location;lat;lon;timestamp;P1;durP1;ratioP1;P2;durP2;ratioP2
70558;SDS011;58108;48.094;11.838;2022-07-31T00:00:55;7.03;;;3.13;;
70558;SDS011;58108;48.094;11.838;2022-07-31T00:03:20;4.40;;;3.05;;
70558;SDS011;58108;48.094;11.838;2022-07-31T00:05:46;4.17;;;2.97;;
70558;SDS011;58108;48.094;11.838;2022-07-31T00:08:11;5.23;;;3.37;;
70558;SDS011;58108;48.094;11.838;2022-07-31T00:10:36;5.00;;;3.37;;
70558;SDS011;58108;48.094;11.838;2022-07-31T00:13:02;5.18;;;3.35;;
70558;SDS011;58108;48.094;11.838;2022-07-31T00:15:28;5.20;;;3.20;;
70558;SDS011;58108;48.094;11.838;2022-07-31T00:17:53;4.75;;;3.30;;
70558;SDS011;58108;48.094;11.838;2022-07-31T00:20:19;4.87;;;3.40;;
70558;SDS011;58108;48.094;11.838;2022-07-31T00:22:45;4.83;;;3.33;;
70558;SDS011;58108;48.094;11.838;2022-07-31T00:25:13;5.93;;;3.53;;
70558;SDS011;58108;48.094;11.838;2022-07-31T00:27:39;4.43;;;3.13;;
70558;SDS011;58108;48.094;11.838;2022-07-31T00:30:05;4.40;;;3.35;;
70558;SDS011;58108;48.094;11.838;2022-07-31T00:32:32;5.37;;;3.40;;
70558;SDS011;58108;48.094;11.838;2022-07-31T00:34:57;5.55;;;3.70;;
70558;SDS011;58108;48.094;11.838;2022-07-31T00:37:23;4.70;;;3.33;;
70558;SDS011;58108;48.094;11.838;2022-07-31T00:39:48;5.00;;;3.93;;
70558;SDS011;58108;48.094;11.838;2022-07-31T00:42:17;5.47;;;3.93;;
70558;SDS011;58108;48.094;11.838;2022-07-31T00:44:43;5.85;;;3.80;;
70558;SDS011;58108;48.094;11.838;2022-07-31T00:47:08;6.50;;;3.63;;
70558;SDS011;58108;48.094;11.838;2022-07-31T00:49:34;5.13;;;3.43;;
70558;SDS011;58108;48.094;11.838;2022-07-31T00:51:59;5.23;;;3.77;;
70558;SDS011;58108;48.094;11.838;2022-07-31T00:54:24;5.17;;;3.60;;
70558;SDS011;58108;48.094;11.838;2022-07-31T00:56:50;5.80;;;4.03;;
70558;SDS011;58108;48.094;11.838;2022-07-31T00:59:15;6.25;;;4.20;;
70558;SDS011;58108;48.094;11.838;2022-07-31T01:01:41;5.63;;;4.27;;
70558;SDS011;58108;48.094;11.838;2022-07-31T01:04:06;6.90;;;4.20;;
70558;SDS011;58108;48.094;11.838;2022-07-31T01:06:31;5.63;;;4.00;;
70558;SDS011;58108;48.094;11.838;2022-07-31T01:08:57;5.05;;;3.72;;
70558;SDS011;58108;48.094;11.838;2022-07-31T01:11:29;5.27;;;3.87;;
70558;SDS011;58108;48.094;11.838;2022-07-31T01:14:08;6.13;;;4.20;;
70558;SDS011;58108;48.094;11.838;2022-07-31T01:16:35;7.20;;;4.80;;
70558;SDS011;58108;48.094;11.838;2022-07-31T01:19:36;6.00;;;4.20;;
70558;SDS011;58108;48.094;11.838;2022-07-31T01:28:06;7.05;;;3.60;;
70558;SDS011;58108;48.094;11.838;2022-07-31T01:30:50;8.07;;;3.50;;
70558;SDS011;58108;48.094;11.838;2022-07-31T01:33:19;6.28;;;3.60;;
70558;SDS011;58108;48.094;11.838;2022-07-31T01:36:20;7.15;;;3.83;;
70558;SDS011;58108;48.094;11.838;2022-07-31T01:38:43;5.97;;;3.70;;
70558;SDS011;58108;48.094;11.838;2022-07-31T01:41:12;4.90;;;3.72;;
70558;SDS011;58108;48.094;11.838;2022-07-31T01:43:40;5.55;;;3.70;;
70558;SDS011;58108;48.094;11.838;2022-07-31T01:46:09;6.03;;;3.25;;
70558;SDS011;58108;48.094;11.838;2022-07-31T01:48:37;4.85;;;3.30;;
70558;SDS011;58108;48.094;11.838;2022-07-31T01:51:04;4.27;;;3.07;;
70558;SDS011;58108;48.094;11.838;2022-07-31T01:53:33;5.25;;;3.55;;
70558;SDS011;58108;48.094;11.838;2022-07-31T01:56:00;4.78;;;3.53;;
70558;SDS011;58108;48.094;11.838;2022-07-31T01:58:26;4.43;;;2.85;;
70558;SDS011;58108;48.094;11.838;2022-07-31T02:00:54;4.80;;;3.38;;
70558;SDS011;58108;48.094;11.838;2022-07-31T02:03:22;5.73;;;3.43;;
70558;SDS011;58108;48.094;11.838;2022-07-31T02:05:49;5.35;;;3.45;;
70558;SDS011;58108;48.094;11.838;2022-07-31T02:08:16;5.50;;;3.88;;
70558;SDS011;58108;48.094;11.838;2022-07-31T02:10:46;5.22;;;4.07;;
70558;SDS011;58108;48.094;11.838;2022-07-31T02:13:12;5.95;;;3.95;;
70558;SDS011;58108;48.094;11.838;2022-07-31T02:15:40;5.80;;;4.00;;
70558;SDS011;58108;48.094;11.838;2022-07-31T02:18:07;6.05;;;3.58;;
70558;SDS011;58108;48.094;11.838;2022-07-31T02:20:35;5.88;;;3.65;;
70558;SDS011;58108;48.094;11.838;2022-07-31T02:23:02;5.28;;;3.55;;
70558;SDS011;58108;48.094;11.838;2022-07-31T02:25:28;5.37;;;3.47;;
70558;SDS011;58108;48.094;11.838;2022-07-31T02:27:54;6.50;;;3.80;;
70558;SDS011;58108;48.094;11.838;2022-07-31T02:30:21;6.47;;;4.20;;
70558;SDS011;58108;48.094;11.838;2022-07-31T02:32:50;5.43;;;3.60;;
70558;SDS011;58108;48.094;11.838;2022-07-31T02:35:16;6.18;;;4.03;;
70558;SDS011;58108;48.094;11.838;2022-07-31T02:37:42;5.20;;;3.92;;
70558;SDS011;58108;48.094;11.838;2022-07-31T02:40:10;5.38;;;3.63;;
70558;SDS011;58108;48.094;11.838;2022-07-31T02:42:37;5.57;;;4.10;;
70558;SDS011;58108;48.094;11.838;2022-07-31T02:45:04;5.20;;;3.57;;
70558;SDS011;58108;48.094;11.838;2022-07-31T02:47:31;5.97;;;4.00;;
70558;SDS011;58108;48.094;11.838;2022-07-31T02:49:57;4.97;;;3.55;;
70558;SDS011;58108;48.094;11.838;2022-07-31T02:52:22;5.77;;;4.30;;
70558;SDS011;58108;48.094;11.838;2022-07-31T02:54:49;6.20;;;3.70;;
70558;SDS011;58108;48.094;11.838;2022-07-31T02:57:15;5.63;;;3.90;;
70558;SDS011;58108;48.094;11.838;2022-07-31T02:59:41;6.63;;;3.80;;
70558;SDS011;58108;48.094;11.838;2022-07-31T03:02:07;5.35;;;3.70;;
70558;SDS011;58108;48.094;11.838;2022-07-31T03:04:33;5.53;;;3.50;;
70558;SDS011;58108;48.094;11.838;2022-07-31T03:06:59;5.63;;;3.50;;
70558;SDS011;58108;48.094;11.838;2022-07-31T03:09:25;5.00;;;3.53;;
70558;SDS011;58108;48.094;11.838;2022-07-31T03:11:51;5.07;;;3.53;;
70558;SDS011;58108;48.094;11.838;2022-07-31T03:14:16;5.77;;;3.40;;
70558;SDS011;58108;48.094;11.838;2022-07-31T03:16:42;5.10;;;3.80;;
70558;SDS011;58108;48.094;11.838;2022-07-31T03:19:10;5.87;;;3.60;;
70558;SDS011;58108;48.094;11.838;2022-07-31T03:21:37;6.60;;;3.60;;
70558;SDS011;58108;48.094;11.838;2022-07-31T03:24:03;5.55;;;3.35;;
70558;SDS011;58108;48.094;11.838;2022-07-31T03:26:29;4.10;;;3.10;;
70558;SDS011;58108;48.094;11.838;2022-07-31T03:28:54;4.47;;;3.00;;
70558;SDS011;58108;48.094;11.838;2022-07-31T03:31:20;4.83;;;3.10;;
70558;SDS011;58108;48.094;11.838;2022-07-31T03:33:45;4.72;;;2.95;;
70558;SDS011;58108;48.094;11.838;2022-07-31T03:36:11;5.40;;;3.20;;
70558;SDS011;58108;48.094;11.838;2022-07-31T03:38:36;4.43;;;3.00;;
70558;SDS011;58108;48.094;11.838;2022-07-31T03:41:02;4.43;;;3.10;;
70558;SDS011;58108;48.094;11.838;2022-07-31T03:43:28;5.87;;;3.13;;
70558;SDS011;58108;48.094;11.838;2022-07-31T03:45:55;4.90;;;3.28;;
70558;SDS011;58108;48.094;11.838;2022-07-31T03:48:23;4.93;;;2.95;;
70558;SDS011;58108;48.094;11.838;2022-07-31T03:50:48;4.67;;;3.30;;
70558;SDS011;58108;48.094;11.838;2022-07-31T03:53:14;4.32;;;2.97;;
70558;SDS011;58108;48.094;11.838;2022-07-31T03:55:40;5.50;;;3.43;;
70558;SDS011;58108;48.094;11.838;2022-07-31T03:58:07;4.78;;;3.22;;
70558;SDS011;58108;48.094;11.838;2022-07-31T04:00:33;4.30;;;2.67;;
70558;SDS011;58108;48.094;11.838;2022-07-31T04:03:03;4.20;;;3.00;;
70558;SDS011;58108;48.094;11.838;2022-07-31T04:05:31;3.90;;;2.92;;
70558;SDS011;58108;48.094;11.838;2022-07-31T04:07:56;5.37;;;2.83;;
70558;SDS011;58108;48.094;11.838;2022-07-31T04:10:22;4.13;;;2.77;;
70558;SDS011;58108;48.094;11.838;2022-07-31T04:12:47;4.75;;;2.90;;
70558;SDS011;58108;48.094;11.838;2022-07-31T04:15:12;4.50;;;2.80;;
70558;SDS011;58108;48.094;11.838;2022-07-31T04:17:38;4.63;;;2.83;;
70558;SDS011;58108;48.094;11.838;2022-07-31T04:20:03;4.57;;;2.53;;
70558;SDS011;58108;48.094;11.838;2022-07-31T04:22:29;3.90;;;2.75;;
70558;SDS011;58108;48.094;11.838;2022-07-31T04:24:54;4.47;;;3.00;;
70558;SDS011;58108;48.094;11.838;2022-07-31T04:27:20;6.00;;;2.67;;
70558;SDS011;58108;48.094;11.838;2022-07-31T04:29:45;4.33;;;2.87;;
70558;SDS011;58108;48.094;11.838;2022-07-31T04:32:13;4.05;;;2.70;;
70558;SDS011;58108;48.094;11.838;2022-07-31T04:34:38;5.00;;;3.03;;
70558;SDS011;58108;48.094;11.838;2022-07-31T04:37:04;4.30;;;2.60;;
70558;SDS011;58108;48.094;11.838;2022-07-31T04:39:29;4.27;;;2.80;;
70558;SDS011;58108;48.094;11.838;2022-07-31T04:41:54;4.43;;;2.70;;
70558;SDS011;58108;48.094;11.838;2022-07-31T04:44:20;4.83;;;2.90;;
70558;SDS011;58108;48.094;11.838;2022-07-31T04:46:46;4.32;;;2.80;;
70558;SDS011;58108;48.094;11.838;2022-07-31T04:49:11;4.47;;;2.70;;
70558;SDS011;58108;48.094;11.838;2022-07-31T04:51:39;4.72;;;2.72;;
70558;SDS011;58108;48.094;11.838;2022-07-31T04:54:04;5.30;;;2.90;;
70558;SDS011;58108;48.094;11.838;2022-07-31T04:56:30;4.43;;;2.60;;
70558;SDS011;58108;48.094;11.838;2022-07-31T04:59:00;4.07;;;2.70;;
70558;SDS011;58108;48.094;11.838;2022-07-31T05:01:30;5.07;;;3.00;;
70558;SDS011;58108;48.094;11.838;2022-07-31T05:03:56;5.93;;;2.60;;
70558;SDS011;58108;48.094;11.838;2022-07-31T05:06:21;5.27;;;2.90;;
70558;SDS011;58108;48.094;11.838;2022-07-31T05:08:47;4.70;;;2.50;;
70558;SDS011;58108;48.094;11.838;2022-07-31T05:11:12;4.63;;;3.10;;
70558;SDS011;58108;48.094;11.838;2022-07-31T05:13:57;4.25;;;2.83;;
70558;SDS011;58108;48.094;11.838;2022-07-31T05:16:24;3.88;;;2.90;;
70558;SDS011;58108;48.094;11.838;2022-07-31T05:18:51;3.95;;;2.70;;
70558;SDS011;58108;48.094;11.838;2022-07-31T05:21:17;3.95;;;2.75;;
70558;SDS011;58108;48.094;11.838;2022-07-31T05:23:43;3.83;;;2.70;;
70558;SDS011;58108;48.094;11.838;2022-07-31T05:26:10;4.53;;;2.63;;
70558;SDS011;58108;48.094;11.838;2022-07-31T05:28:36;4.05;;;2.88;;
70558;SDS011;58108;48.094;11.838;2022-07-31T05:31:03;6.25;;;3.00;;
70558;SDS011;58108;48.094;11.838;2022-07-31T05:33:29;4.47;;;2.45;;
70558;SDS011;58108;48.094;11.838;2022-07-31T05:35:55;4.20;;;2.70;;
70558;SDS011;58108;48.094;11.838;2022-07-31T05:38:21;4.18;;;2.90;;
70558;SDS011;58108;48.094;11.838;2022-07-31T05:40:47;5.10;;;2.87;;
70558;SDS011;58108;48.094;11.838;2022-07-31T05:43:12;5.17;;;2.73;;
70558;SDS011;58108;48.094;11.838;2022-07-31T05:45:37;4.70;;;2.67;;
70558;SDS011;58108;48.094;11.838;2022-07-31T05:48:03;3.80;;;2.60;;
70558;SDS011;58108;48.094;11.838;2022-07-31T05:50:29;3.77;;;2.33;;
70558;SDS011;58108;48.094;11.838;2022-07-31T05:52:54;4.47;;;2.60;;
70558;SDS011;58108;48.094;11.838;2022-07-31T05:55:20;4.80;;;2.70;;
70558;SDS011;58108;48.094;11.838;2022-07-31T05:57:45;4.97;;;2.80;;
70558;SDS011;58108;48.094;11.838;2022-07-31T06:00:11;3.67;;;2.70;;
70558;SDS011;58108;48.094;11.838;2022-07-31T06:02:37;4.93;;;2.72;;
70558;SDS011;58108;48.094;11.838;2022-07-31T06:05:03;4.37;;;2.60;;
70558;SDS011;58108;48.094;11.838;2022-07-31T06:07:29;10.23;;;6.05;;
70558;SDS011;58108;48.094;11.838;2022-07-31T06:09:54;5.60;;;3.13;;
70558;SDS011;58108;48.094;11.838;2022-07-31T06:12:19;5.33;;;3.27;;
70558;SDS011;58108;48.094;11.838;2022-07-31T06:14:45;5.00;;;3.00;;
70558;SDS011;58108;48.094;11.838;2022-07-31T06:17:10;4.00;;;2.83;;
70558;SDS011;58108;48.094;11.838;2022-07-31T06:19:36;6.03;;;3.00;;
70558;SDS011;58108;48.094;11.838;2022-07-31T06:22:02;3.70;;;2.50;;
70558;SDS011;58108;48.094;11.838;2022-07-31T06:24:27;3.97;;;2.70;;
70558;SDS011;58108;48.094;11.838;2022-07-31T06:26:56;3.80;;;2.67;;
70558;SDS011;58108;48.094;11.838;2022-07-31T06:29:22;3.93;;;2.63;;
70558;SDS011;58108;48.094;11.838;2022-07-31T06:31:48;6.35;;;3.78;;
70558;SDS011;58108;48.094;11.838;2022-07-31T06:34:13;4.60;;;3.20;;
70558;SDS011;58108;48.094;11.838;2022-07-31T06:36:39;4.37;;;2.70;;
70558;SDS011;58108;48.094;11.838;2022-07-31T06:39:04;4.60;;;2.70;;
70558;SDS011;58108;48.094;11.838;2022-07-31T06:41:29;3.80;;;2.80;;
70558;SDS011;58108;48.094;11.838;2022-07-31T06:44:13;4.32;;;2.90;;
70558;SDS011;58108;48.094;11.838;2022-07-31T06:46:40;4.20;;;2.73;;
70558;SDS011;58108;48.094;11.838;2022-07-31T06:49:05;3.65;;;2.70;;
70558;SDS011;58108;48.094;11.838;2022-07-31T06:51:31;6.93;;;2.70;;
70558;SDS011;58108;48.094;11.838;2022-07-31T06:53:56;4.70;;;2.87;;
70558;SDS011;58108;48.094;11.838;2022-07-31T06:56:22;4.65;;;2.90;;
70558;SDS011;58108;48.094;11.838;2022-07-31T06:58:48;4.03;;;2.60;;
70558;SDS011;58108;48.094;11.838;2022-07-31T07:01:13;4.93;;;3.00;;
70558;SDS011;58108;48.094;11.838;2022-07-31T07:03:39;4.22;;;2.90;;
70558;SDS011;58108;48.094;11.838;2022-07-31T07:06:04;3.93;;;2.80;;
70558;SDS011;58108;48.094;11.838;2022-07-31T07:08:29;4.47;;;3.23;;
70558;SDS011;58108;48.094;11.838;2022-07-31T07:10:55;5.23;;;3.00;;
70558;SDS011;58108;48.094;11.838;2022-07-31T07:13:20;3.97;;;2.93;;
70558;SDS011;58108;48.094;11.838;2022-07-31T07:15:46;4.10;;;2.50;;
70558;SDS011;58108;48.094;11.838;2022-07-31T07:18:11;4.60;;;3.13;;
70558;SDS011;58108;48.094;11.838;2022-07-31T07:20:37;4.67;;;2.87;;
70558;SDS011;58108;48.094;11.838;2022-07-31T07:23:03;4.20;;;2.72;;
70558;SDS011;58108;48.094;11.838;2022-07-31T07:25:28;5.10;;;2.97;;
70558;SDS011;58108;48.094;11.838;2022-07-31T07:27:54;5.00;;;2.97;;
70558;SDS011;58108;48.094;11.838;2022-07-31T07:30:20;4.13;;;2.93;;
70558;SDS011;58108;48.094;11.838;2022-07-31T07:32:46;5.88;;;2.90;;
70558;SDS011;58108;48.094;11.838;2022-07-31T07:35:11;5.97;;;2.47;;
70558;SDS011;58108;48.094;11.838;2022-07-31T07:37:40;4.80;;;3.03;;
70558;SDS011;58108;48.094;11.838;2022-07-31T07:40:06;4.50;;;3.00;;
70558;SDS011;58108;48.094;11.838;2022-07-31T07:42:33;5.32;;;2.80;;
70558;SDS011;58108;48.094;11.838;2022-07-31T07:44:58;4.70;;;2.77;;
70558;SDS011;58108;48.094;11.838;2022-07-31T07:47:24;7.67;;;2.80;;
70558;SDS011;58108;48.094;11.838;2022-07-31T07:49:49;4.00;;;2.60;;
70558;SDS011;58108;48.094;11.838;2022-07-31T07:52:15;4.83;;;2.60;;
70558;SDS011;58108;48.094;11.838;2022-07-31T07:54:40;4.53;;;2.73;;
70558;SDS011;58108;48.094;11.838;2022-07-31T07:57:07;5.03;;;2.90;;
70558;SDS011;58108;48.094;11.838;2022-07-31T07:59:33;5.00;;;3.05;;
70558;SDS011;58108;48.094;11.838;2022-07-31T08:01:58;6.07;;;2.83;;
70558;SDS011;58108;48.094;11.838;2022-07-31T08:04:23;4.17;;;2.80;;
70558;SDS011;58108;48.094;11.838;2022-07-31T08:06:49;4.27;;;2.83;;
70558;SDS011;58108;48.094;11.838;2022-07-31T08:09:14;4.80;;;2.83;;
70558;SDS011;58108;48.094;11.838;2022-07-31T08:11:39;4.40;;;2.90;;
70558;SDS011;58108;48.094;11.838;2022-07-31T08:14:05;6.00;;;3.10;;
70558;SDS011;58108;48.094;11.838;2022-07-31T08:16:30;3.70;;;2.77;;
70558;SDS011;58108;48.094;11.838;2022-07-31T08:18:56;4.55;;;2.83;;
70558;SDS011;58108;48.094;11.838;2022-07-31T08:21:21;4.70;;;2.77;;
70558;SDS011;58108;48.094;11.838;2022-07-31T08:23:47;4.57;;;2.90;;
70558;SDS011;58108;48.094;11.838;2022-07-31T08:26:12;4.17;;;2.80;;
70558;SDS011;58108;48.094;11.838;2022-07-31T08:28:38;4.63;;;2.90;;
70558;SDS011;58108;48.094;11.838;2022-07-31T08:31:03;6.07;;;3.07;;
70558;SDS011;58108;48.094;11.838;2022-07-31T08:33:32;5.07;;;3.00;;
70558;SDS011;58108;48.094;11.838;2022-07-31T08:35:57;4.20;;;3.00;;
70558;SDS011;58108;48.094;11.838;2022-07-31T08:38:23;3.60;;;2.50;;
70558;SDS011;58108;48.094;11.838;2022-07-31T08:40:48;4.67;;;3.30;;
70558;SDS011;58108;48.094;11.838;2022-07-31T08:43:14;4.80;;;3.10;;
70558;SDS011;58108;48.094;11.838;2022-07-31T08:45:39;4.13;;;2.80;;
70558;SDS011;58108;48.094;11.838;2022-07-31T08:48:06;3.57;;;2.60;;
70558;SDS011;58108;48.094;11.838;2022-07-31T08:50:37;6.70;;;3.00;;
70558;SDS011;58108;48.094;11.838;2022-07-31T08:53:04;4.80;;;3.17;;
70558;SDS011;58108;48.094;11.838;2022-07-31T08:55:30;4.95;;;2.17;;
70558;SDS011;58108;48.094;11.838;2022-07-31T08:57:56;4.18;;;2.72;;
70558;SDS011;58108;48.094;11.838;2022-07-31T09:00:22;4.70;;;3.10;;
70558;SDS011;58108;48.094;11.838;2022-07-31T09:02:48;5.13;;;2.80;;
70558;SDS011;58108;48.094;11.838;2022-07-31T09:05:14;4.28;;;2.80;;
70558;SDS011;58108;48.094;11.838;2022-07-31T09:07:40;5.00;;;3.03;;
70558;SDS011;58108;48.094;11.838;2022-07-31T09:10:10;4.85;;;2.88;;
70558;SDS011;58108;48.094;11.838;2022-07-31T09:12:53;6.40;;;2.92;;
70558;SDS011;58108;48.094;11.838;2022-07-31T09:15:20;3.90;;;2.80;;
70558;SDS011;58108;48.094;11.838;2022-07-31T09:17:47;4.07;;;2.50;;
70558;SDS011;58108;48.094;11.838;2022-07-31T09:20:19;4.28;;;2.72;;
70558;SDS011;58108;48.094;11.838;2022-07-31T09:22:46;5.38;;;2.90;;
70558;SDS011;58108;48.094;11.838;2022-07-31T09:25:13;5.20;;;3.30;;
70558;SDS011;58108;48.094;11.838;2022-07-31T09:27:42;5.07;;;2.80;;
70558;SDS011;58108;48.094;11.838;2022-07-31T09:30:08;4.13;;;2.63;;
70558;SDS011;58108;48.094;11.838;2022-07-31T09:32:34;4.07;;;2.50;;
70558;SDS011;58108;48.094;11.838;2022-07-31T09:35:07;5.33;;;2.83;;
70558;SDS011;58108;48.094;11.838;2022-07-31T09:37:34;4.55;;;2.78;;
70558;SDS011;58108;48.094;11.838;2022-07-31T09:40:00;3.28;;;2.53;;
70558;SDS011;58108;48.094;11.838;2022-07-31T09:42:33;2.90;;;2.20;;
70558;SDS011;58108;48.094;11.838;2022-07-31T09:47:43;3.10;;;2.10;;
70558;SDS011;58108;48.094;11.838;2022-07-31T09:50:09;4.32;;;2.10;;
70558;SDS011;58108;48.094;11.838;2022-07-31T09:52:34;4.35;;;2.65;;
70558;SDS011;58108;48.094;11.838;2022-07-31T09:55:12;3.83;;;2.50;;
70558;SDS011;58108;48.094;11.838;2022-07-31T09:57:49;4.20;;;2.67;;
70558;SDS011;58108;48.094;11.838;2022-07-31T10:00:18;4.70;;;2.30;;
70558;SDS011;58108;48.094;11.838;2022-07-31T10:02:43;3.00;;;2.25;;
70558;SDS011;58108;48.094;11.838;2022-07-31T10:05:09;2.97;;;2.13;;
70558;SDS011;58108;48.094;11.838;2022-07-31T10:07:36;3.80;;;2.28;;
70558;SDS011;58108;48.094;11.838;2022-07-31T10:10:03;3.92;;;2.50;;
70558;SDS011;58108;48.094;11.838;2022-07-31T10:12:31;5.03;;;2.17;;
70558;SDS011;58108;48.094;11.838;2022-07-31T10:15:02;3.50;;;2.20;;
70558;SDS011;58108;48.094;11.838;2022-07-31T10:17:32;3.60;;;2.40;;
70558;SDS011;58108;48.094;11.838;2022-07-31T10:20:02;3.92;;;2.20;;
70558;SDS011;58108;48.094;11.838;2022-07-31T10:22:30;4.05;;;2.60;;
70558;SDS011;58108;48.094;11.838;2022-07-31T10:25:03;4.22;;;2.00;;
70558;SDS011;58108;48.094;11.838;2022-07-31T10:27:32;3.35;;;2.20;;
70558;SDS011;58108;48.094;11.838;2022-07-31T10:29:59;3.73;;;2.40;;
70558;SDS011;58108;48.094;11.838;2022-07-31T10:32:25;3.10;;;2.20;;
70558;SDS011;58108;48.094;11.838;2022-07-31T10:34:51;4.30;;;2.43;;
70558;SDS011;58108;48.094;11.838;2022-07-31T10:37:39;4.13;;;2.40;;
70558;SDS011;58108;48.094;11.838;2022-07-31T10:40:39;4.35;;;2.35;;
70558;SDS011;58108;48.094;11.838;2022-07-31T10:43:16;3.47;;;2.60;;
70558;SDS011;58108;48.094;11.838;2022-07-31T10:45:46;4.10;;;2.10;;
70558;SDS011;58108;48.094;11.838;2022-07-31T10:48:14;6.87;;;3.70;;
70558;SDS011;58108;48.094;11.838;2022-07-31T10:50:39;4.68;;;2.70;;
70558;SDS011;58108;48.094;11.838;2022-07-31T10:53:08;5.37;;;2.50;;
70558;SDS011;58108;48.094;11.838;2022-07-31T10:55:38;4.10;;;2.35;;
70558;SDS011;58108;48.094;11.838;2022-07-31T10:58:07;3.10;;;2.33;;
70558;SDS011;58108;48.094;11.838;2022-07-31T11:00:41;6.45;;;2.20;;
70558;SDS011;58108;48.094;11.838;2022-07-31T11:03:19;3.78;;;2.10;;
70558;SDS011;58108;48.094;11.838;2022-07-31T11:05:53;3.72;;;2.30;;
70558;SDS011;58108;48.094;11.838;2022-07-31T11:08:19;3.10;;;2.23;;
70558;SDS011;58108;48.094;11.838;2022-07-31T11:10:49;4.60;;;2.20;;
70558;SDS011;58108;48.094;11.838;2022-07-31T11:13:15;3.35;;;1.98;;
70558;SDS011;58108;48.094;11.838;2022-07-31T11:15:41;3.63;;;2.30;;
70558;SDS011;58108;48.094;11.838;2022-07-31T11:18:11;3.23;;;2.00;;
70558;SDS011;58108;48.094;11.838;2022-07-31T11:20:37;4.15;;;1.90;;
70558;SDS011;58108;48.094;11.838;2022-07-31T11:23:03;5.60;;;2.80;;
70558;SDS011;58108;48.094;11.838;2022-07-31T11:25:30;3.95;;;2.45;;
70558;SDS011;58108;48.094;11.838;2022-07-31T11:28:11;3.70;;;2.28;;
70558;SDS011;58108;48.094;11.838;2022-07-31T11:30:51;3.35;;;2.20;;
70558;SDS011;58108;48.094;11.838;2022-07-31T11:35:56;3.23;;;1.80;;
70558;SDS011;58108;48.094;11.838;2022-07-31T11:38:29;3.10;;;1.73;;
70558;SDS011;58108;48.094;11.838;2022-07-31T11:40:55;3.70;;;1.90;;
70558;SDS011;58108;48.094;11.838;2022-07-31T11:43:21;3.87;;;1.60;;
70558;SDS011;58108;48.094;11.838;2022-07-31T11:45:47;2.65;;;1.50;;
70558;SDS011;58108;48.094;11.838;2022-07-31T11:48:15;7.27;;;1.73;;
70558;SDS011;58108;48.094;11.838;2022-07-31T11:50:41;3.20;;;1.85;;
70558;SDS011;58108;48.094;11.838;2022-07-31T11:53:08;3.13;;;1.73;;
70558;SDS011;58108;48.094;11.838;2022-07-31T11:55:44;2.33;;;1.58;;
70558;SDS011;58108;48.094;11.838;2022-07-31T11:58:15;2.60;;;1.58;;
70558;SDS011;58108;48.094;11.838;2022-07-31T12:00:49;3.43;;;1.93;;
70558;SDS011;58108;48.094;11.838;2022-07-31T12:03:17;4.45;;;1.90;;
70558;SDS011;58108;48.094;11.838;2022-07-31T12:05:45;3.40;;;2.03;;
70558;SDS011;58108;48.094;11.838;2022-07-31T12:08:13;3.25;;;1.70;;
70558;SDS011;58108;48.094;11.838;2022-07-31T12:10:39;3.70;;;2.20;;
70558;SDS011;58108;48.094;11.838;2022-07-31T12:13:09;4.47;;;2.30;;
70558;SDS011;58108;48.094;11.838;2022-07-31T12:15:52;3.67;;;2.03;;
70558;SDS011;58108;48.094;11.838;2022-07-31T12:18:18;3.42;;;1.83;;
70558;SDS011;58108;48.094;11.838;2022-07-31T12:20:50;4.20;;;2.00;;
70558;SDS011;58108;48.094;11.838;2022-07-31T12:23:19;3.65;;;2.15;;
70558;SDS011;58108;48.094;11.838;2022-07-31T12:25:45;2.90;;;1.70;;
70558;SDS011;58108;48.094;11.838;2022-07-31T12:28:14;4.70;;;1.58;;
70558;SDS011;58108;48.094;11.838;2022-07-31T12:30:40;2.35;;;1.67;;
70558;SDS011;58108;48.094;11.838;2022-07-31T12:33:06;2.30;;;1.43;;
70558;SDS011;58108;48.094;11.838;2022-07-31T12:35:42;2.70;;;1.70;;
70558;SDS011;58108;48.094;11.838;2022-07-31T12:38:08;2.83;;;1.65;;
70558;SDS011;58108;48.094;11.838;2022-07-31T12:40:34;3.42;;;1.65;;
70558;SDS011;58108;48.094;11.838;2022-07-31T12:42:59;2.90;;;1.60;;
70558;SDS011;58108;48.094;11.838;2022-07-31T12:45:29;3.40;;;1.60;;
70558;SDS011;58108;48.094;11.838;2022-07-31T12:48:02;3.00;;;1.33;;
70558;SDS011;58108;48.094;11.838;2022-07-31T12:50:29;2.87;;;1.20;;
70558;SDS011;58108;48.094;11.838;2022-07-31T12:52:56;2.45;;;1.70;;
70558;SDS011;58108;48.094;11.838;2022-07-31T12:55:23;3.40;;;1.70;;
70558;SDS011;58108;48.094;11.838;2022-07-31T12:57:49;3.13;;;1.83;;
70558;SDS011;58108;48.094;11.838;2022-07-31T13:00:15;2.95;;;1.90;;
70558;SDS011;58108;48.094;11.838;2022-07-31T13:02:42;3.92;;;2.08;;
70558;SDS011;58108;48.094;11.838;2022-07-31T13:05:08;4.20;;;2.10;;
70558;SDS011;58108;48.094;11.838;2022-07-31T13:07:33;3.15;;;2.20;;
70558;SDS011;58108;48.094;11.838;2022-07-31T13:09:59;2.83;;;1.80;;
70558;SDS011;58108;48.094;11.838;2022-07-31T13:12:25;2.73;;;1.93;;
70558;SDS011;58108;48.094;11.838;2022-07-31T13:14:50;4.03;;;1.90;;
70558;SDS011;58108;48.094;11.838;2022-07-31T13:17:15;3.50;;;2.20;;
70558;SDS011;58108;48.094;11.838;2022-07-31T13:19:40;4.90;;;1.87;;
70558;SDS011;58108;48.094;11.838;2022-07-31T13:22:06;3.53;;;2.10;;
70558;SDS011;58108;48.094;11.838;2022-07-31T13:24:31;4.07;;;2.50;;
70558;SDS011;58108;48.094;11.838;2022-07-31T13:26:57;2.90;;;2.17;;
70558;SDS011;58108;48.094;11.838;2022-07-31T13:29:22;4.60;;;2.88;;
70558;SDS011;58108;48.094;11.838;2022-07-31T13:31:48;4.70;;;2.53;;
70558;SDS011;58108;48.094;11.838;2022-07-31T13:34:13;3.63;;;2.17;;
70558;SDS011;58108;48.094;11.838;2022-07-31T13:36:39;3.57;;;2.10;;
70558;SDS011;58108;48.094;11.838;2022-07-31T13:39:04;3.67;;;2.10;;
70558;SDS011;58108;48.094;11.838;2022-07-31T13:41:30;3.00;;;2.07;;
70558;SDS011;58108;48.094;11.838;2022-07-31T13:43:56;2.90;;;2.13;;
70558;SDS011;58108;48.094;11.838;2022-07-31T13:46:23;3.25;;;2.10;;
70558;SDS011;58108;48.094;11.838;2022-07-31T13:48:50;6.22;;;2.15;;
70558;SDS011;58108;48.094;11.838;2022-07-31T13:51:17;3.27;;;2.10;;
70558;SDS011;58108;48.094;11.838;2022-07-31T13:53:43;3.22;;;1.98;;
70558;SDS011;58108;48.094;11.838;2022-07-31T13:56:08;3.47;;;1.53;;
70558;SDS011;58108;48.094;11.838;2022-07-31T13:58:35;4.68;;;1.90;;
70558;SDS011;58108;48.094;11.838;2022-07-31T14:01:00;2.70;;;1.75;;
70558;SDS011;58108;48.094;11.838;2022-07-31T14:03:26;2.30;;;1.87;;
70558;SDS011;58108;48.094;11.838;2022-07-31T14:05:51;2.67;;;1.90;;
70558;SDS011;58108;48.094;11.838;2022-07-31T14:08:18;3.73;;;1.83;;
70558;SDS011;58108;48.094;11.838;2022-07-31T14:10:44;3.65;;;2.40;;
70558;SDS011;58108;48.094;11.838;2022-07-31T14:13:11;3.03;;;1.90;;
70558;SDS011;58108;48.094;11.838;2022-07-31T14:15:36;3.23;;;1.80;;
70558;SDS011;58108;48.094;11.838;2022-07-31T14:18:02;2.87;;;1.70;;
70558;SDS011;58108;48.094;11.838;2022-07-31T14:20:28;3.73;;;1.90;;
70558;SDS011;58108;48.094;11.838;2022-07-31T14:22:54;2.90;;;1.83;;
70558;SDS011;58108;48.094;11.838;2022-07-31T14:25:19;2.37;;;1.67;;
70558;SDS011;58108;48.094;11.838;2022-07-31T14:27:45;2.97;;;1.70;;
70558;SDS011;58108;48.094;11.838;2022-07-31T14:30:10;2.93;;;1.50;;
70558;SDS011;58108;48.094;11.838;2022-07-31T14:32:38;2.85;;;1.38;;
70558;SDS011;58108;48.094;11.838;2022-07-31T14:35:04;3.37;;;1.60;;
70558;SDS011;58108;48.094;11.838;2022-07-31T14:37:30;2.90;;;1.60;;
70558;SDS011;58108;48.094;11.838;2022-07-31T14:39:55;3.43;;;1.67;;
70558;SDS011;58108;48.094;11.838;2022-07-31T14:42:20;2.60;;;1.60;;
70558;SDS011;58108;48.094;11.838;2022-07-31T14:44:46;2.20;;;1.50;;